Time;durP1;ratioP1;P1;durP2;ratioP2;P2;SDS_P1;SDS_P2;PMS_P1;PMS_P2;Temp;Humidity;BMP_temperature;BMP_pressure;BME280_temperature;BME280_humidity;BME280_pressure;Samples;Min_cycle;Max_cycle;Signal;HPM_P1;HPM_P2
2023/12/27 00:01:19;;;;;;;5.13;2.58;;;;;;;;;;4993811;28;20026;-58
2023/12/27 00:03:45;;;;;;;4.22;2.33;;;;;;;;;;4991318;28;20088;-58
2023/12/27 00:06:10;;;;;;;3.92;2.08;;;;;;;;;;4993618;28;20084;-58
2023/12/27 00:08:35;;;;;;;5.25;2.45;;;;;;;;;;4989248;28;20031;-58
2023/12/27 00:11:04;;;;;;;5.05;2.22;;;;;;;;;;4992963;28;20113;-58
2023/12/27 00:13:29;;;;;;;3.92;2.25;;;;;;;;;;4993200;28;20026;-58
2023/12/27 00:15:55;;;;;;;4.72;2.53;;;;;;;;;;4993958;28;20113;-58
2023/12/27 00:18:20;;;;;;;3.60;2.30;;;;;;;;;;4992138;28;20661;-54
2023/12/27 00:20:47;;;;;;;4.10;2.30;;;;;;;;;;4993393;28;20034;-51
2023/12/27 00:23:13;;;;;;;3.90;2.08;;;;;;;;;;4990978;28;20046;-54
2023/12/27 00:25:39;;;;;;;5.18;2.00;;;;;;;;;;4991313;28;20034;-54
2023/12/27 00:28:04;;;;;;;298.00;113.22;;;;;;;;;;4990590;28;20034;-53
2023/12/27 00:30:31;;;;;;;150.75;62.50;;;;;;;;;;4985653;28;20038;-54
2023/12/27 00:32:56;;;;;;;110.00;45.50;;;;;;;;;;4984093;28;20027;-52
2023/12/27 00:35:22;;;;;;;76.75;33.20;;;;;;;;;;4985659;28;20026;-49
2023/12/27 00:37:47;;;;;;;64.88;26.52;;;;;;;;;;4986461;28;20555;-49
2023/12/27 00:40:13;;;;;;;50.25;20.92;;;;;;;;;;4984472;28;20073;-52
2023/12/27 00:42:38;;;;;;;42.65;18.52;;;;;;;;;;4989608;28;20539;-52
2023/12/27 00:45:04;;;;;;;39.88;16.73;;;;;;;;;;4985941;28;20496;-54
2023/12/27 00:47:29;;;;;;;36.90;14.88;;;;;;;;;;4989211;28;20029;-51
2023/12/27 00:49:55;;;;;;;30.95;13.27;;;;;;;;;;4993582;28;20038;-53
2023/12/27 00:52:20;;;;;;;26.67;12.77;;;;;;;;;;4994176;28;20093;-53
2023/12/27 00:54:46;;;;;;;23.95;10.65;;;;;;;;;;4991949;28;20507;-51
2023/12/27 00:57:11;;;;;;;23.00;10.30;;;;;;;;;;4984030;28;20026;-51
2023/12/27 00:59:36;;;;;;;20.65;10.35;;;;;;;;;;4992433;28;20515;-54
2023/12/27 01:02:02;;;;;;;20.35;9.15;;;;;;;;;;4986266;28;20045;-52
2023/12/27 01:04:28;;;;;;;22.30;9.65;;;;;;;;;;4991248;28;20112;-51
2023/12/27 01:06:53;;;;;;;18.23;8.63;;;;;;;;;;4993889;28;20030;-50
2023/12/27 01:09:18;;;;;;;18.63;8.13;;;;;;;;;;4988657;28;20030;-55
2023/12/27 01:11:44;;;;;;;16.40;7.63;;;;;;;;;;4992523;28;20026;-52
2023/12/27 01:14:09;;;;;;;16.75;8.50;;;;;;;;;;4993360;28;20023;-54
2023/12/27 01:16:34;;;;;;;18.27;7.75;;;;;;;;;;5006963;28;20030;-52
2023/12/27 01:19:00;;;;;;;15.77;7.30;;;;;;;;;;4990457;28;20029;-52
2023/12/27 01:21:25;;;;;;;12.60;6.65;;;;;;;;;;4991463;28;20038;-53
2023/12/27 01:23:51;;;;;;;14.15;6.90;;;;;;;;;;4993421;28;20034;-52
2023/12/27 01:26:17;;;;;;;18.75;7.10;;;;;;;;;;4988455;28;20363;-55
2023/12/27 01:28:42;;;;;;;16.00;6.30;;;;;;;;;;4990223;28;20072;-52
2023/12/27 01:31:09;;;;;;;15.18;5.78;;;;;;;;;;4991915;28;20038;-51
2023/12/27 01:33:35;;;;;;;14.15;6.47;;;;;;;;;;4992508;28;20111;-49
2023/12/27 01:36:08;;;;;;;13.90;5.45;;;;;;;;;;4990419;28;20734;-53
2023/12/27 01:38:33;;;;;;;13.60;5.75;;;;;;;;;;4987954;28;20084;-58
2023/12/27 01:40:59;;;;;;;13.55;5.75;;;;;;;;;;4986961;28;20469;-58
2023/12/27 01:43:24;;;;;;;13.55;5.55;;;;;;;;;;4986655;28;20053;-58
2023/12/27 01:45:50;;;;;;;11.50;4.88;;;;;;;;;;4988312;28;20559;-58
2023/12/27 01:48:20;;;;;;;9.40;4.60;;;;;;;;;;4988153;28;20532;-51
2023/12/27 01:50:47;;;;;;;10.10;5.00;;;;;;;;;;4987913;28;20037;-54
2023/12/27 01:53:12;;;;;;;12.80;4.60;;;;;;;;;;5006289;28;20413;-50
2023/12/27 01:55:38;;;;;;;9.85;4.18;;;;;;;;;;4988742;28;20034;-53
2023/12/27 01:58:08;;;;;;;7.53;3.63;;;;;;;;;;5006945;28;20050;-52
2023/12/27 02:00:35;;;;;;;8.60;4.10;;;;;;;;;;4989628;28;20042;-54
2023/12/27 02:03:01;;;;;;;7.13;3.50;;;;;;;;;;4990623;28;20034;-51
2023/12/27 02:05:26;;;;;;;7.85;3.60;;;;;;;;;;4992150;28;20419;-49
2023/12/27 02:07:52;;;;;;;10.25;3.70;;;;;;;;;;4988219;28;20504;-53
2023/12/27 02:10:17;;;;;;;8.18;3.25;;;;;;;;;;4991713;28;20062;-52
2023/12/27 02:12:43;;;;;;;7.95;3.10;;;;;;;;;;4984442;28;20031;-53
2023/12/27 02:15:08;;;;;;;7.68;3.17;;;;;;;;;;4993022;28;20022;-50
2023/12/27 02:17:34;;;;;;;8.07;3.20;;;;;;;;;;4987442;28;20031;-53
2023/12/27 02:20:00;;;;;;;6.70;3.00;;;;;;;;;;4990234;28;20034;-50
2023/12/27 02:22:27;;;;;;;5.22;2.40;;;;;;;;;;5004352;28;20373;-52
2023/12/27 02:24:53;;;;;;;6.05;2.80;;;;;;;;;;4989707;28;20076;-53
2023/12/27 02:27:19;;;;;;;7.72;2.67;;;;;;;;;;4989702;28;20038;-53
2023/12/27 02:29:45;;;;;;;6.65;2.65;;;;;;;;;;4989914;28;20019;-50
2023/12/27 02:32:10;;;;;;;7.15;2.80;;;;;;;;;;4990723;28;20030;-52
2023/12/27 02:34:35;;;;;;;6.07;2.70;;;;;;;;;;4984701;28;20068;-55
2023/12/27 02:37:01;;;;;;;6.07;2.55;;;;;;;;;;4984878;28;20038;-53
2023/12/27 02:39:26;;;;;;;5.55;2.13;;;;;;;;;;4984826;28;20431;-58
2023/12/27 02:41:52;;;;;;;4.45;1.98;;;;;;;;;;4985890;28;20022;-58
2023/12/27 02:44:18;;;;;;;5.18;2.10;;;;;;;;;;4984999;28;20042;-58
2023/12/27 02:46:43;;;;;;;4.65;2.10;;;;;;;;;;4990972;28;20424;-58
2023/12/27 02:49:09;;;;;;;5.05;2.03;;;;;;;;;;4989354;28;20034;-58
2023/12/27 02:51:34;;;;;;;5.88;2.00;;;;;;;;;;4990870;28;20018;-58
2023/12/27 02:53:59;;;;;;;5.22;2.00;;;;;;;;;;4987158;28;20566;-58
2023/12/27 02:56:25;;;;;;;4.45;1.70;;;;;;;;;;4988090;28;20034;-58
2023/12/27 02:58:50;;;;;;;4.15;1.80;;;;;;;;;;4989276;28;20030;-52
2023/12/27 03:01:16;;;;;;;5.78;1.90;;;;;;;;;;4990052;28;20109;-52
2023/12/27 03:03:41;;;;;;;3.65;1.55;;;;;;;;;;4988212;28;20026;-53
2023/12/27 03:06:06;;;;;;;4.18;2.30;;;;;;;;;;5002149;28;20090;-52
2023/12/27 03:08:33;;;;;;;4.00;1.60;;;;;;;;;;4984595;28;21792;-53
2023/12/27 03:10:59;;;;;;;3.97;1.60;;;;;;;;;;4986486;28;20026;-53
2023/12/27 03:13:24;;;;;;;3.50;1.52;;;;;;;;;;4987037;28;20113;-52
2023/12/27 03:15:50;;;;;;;3.10;1.48;;;;;;;;;;4986960;28;20531;-54
2023/12/27 03:18:15;;;;;;;2.75;1.35;;;;;;;;;;4982135;28;20018;-50
2023/12/27 03:20:41;;;;;;;3.70;1.40;;;;;;;;;;4989954;28;20503;-52
2023/12/27 03:23:06;;;;;;;4.97;1.52;;;;;;;;;;4985053;28;20038;-50
2023/12/27 03:25:31;;;;;;;3.65;1.25;;;;;;;;;;4989068;28;20505;-52
2023/12/27 03:27:57;;;;;;;3.10;1.23;;;;;;;;;;4984542;28;20018;-54
2023/12/27 03:30:22;;;;;;;2.95;1.10;;;;;;;;;;4988368;28;20498;-54
2023/12/27 03:32:48;;;;;;;3.55;1.30;;;;;;;;;;4994045;28;20037;-53
2023/12/27 03:35:13;;;;;;;3.80;1.20;;;;;;;;;;5006707;28;20488;-54
2023/12/27 03:37:39;;;;;;;2.92;1.30;;;;;;;;;;4988702;28;20037;-54
2023/12/27 03:40:05;;;;;;;3.65;1.35;;;;;;;;;;4990331;28;20030;-52
2023/12/27 03:42:31;;;;;;;2.70;1.20;;;;;;;;;;5006219;28;20033;-52
2023/12/27 03:44:56;;;;;;;2.05;1.00;;;;;;;;;;4990354;28;20030;-53
2023/12/27 03:47:22;;;;;;;2.28;0.77;;;;;;;;;;4991543;28;20489;-50
2023/12/27 03:49:48;;;;;;;2.28;1.08;;;;;;;;;;4988841;28;20037;-51
2023/12/27 03:52:13;;;;;;;2.53;0.90;;;;;;;;;;4994172;28;20380;-51
2023/12/27 03:54:40;;;;;;;1.92;1.13;;;;;;;;;;4992960;28;20046;-55
2023/12/27 03:57:05;;;;;;;2.50;1.08;;;;;;;;;;4992183;28;20502;-50
2023/12/27 03:59:30;;;;;;;3.38;1.45;;;;;;;;;;4991816;28;20027;-53
2023/12/27 04:01:56;;;;;;;2.97;1.25;;;;;;;;;;4991766;28;20022;-52
2023/12/27 04:04:21;;;;;;;1.20;0.70;;;;;;;;;;4987947;28;20022;-51
2023/12/27 04:06:46;;;;;;;2.50;1.30;;;;;;;;;;4993499;28;20484;-48
2023/12/27 04:09:12;;;;;;;2.42;1.25;;;;;;;;;;4990735;28;20034;-52
2023/12/27 04:11:44;;;;;;;2.15;0.80;;;;;;;;;;4991177;28;20059;-50
2023/12/27 04:14:10;;;;;;;2.85;1.10;;;;;;;;;;4988644;28;20033;-54
2023/12/27 04:16:36;;;;;;;2.20;1.20;;;;;;;;;;4987877;28;20529;-53
2023/12/27 04:19:02;;;;;;;2.90;0.90;;;;;;;;;;4988881;28;20038;-52
2023/12/27 04:21:27;;;;;;;1.88;0.60;;;;;;;;;;4990730;28;20034;-53
2023/12/27 04:23:52;;;;;;;1.60;0.63;;;;;;;;;;4993442;28;20473;-54
2023/12/27 04:26:18;;;;;;;1.13;0.63;;;;;;;;;;4987779;28;20109;-48
2023/12/27 04:28:43;;;;;;;2.28;0.65;;;;;;;;;;4992614;28;20037;-58
2023/12/27 04:31:09;;;;;;;1.98;0.82;;;;;;;;;;4992596;28;20030;-58
2023/12/27 04:33:34;;;;;;;1.95;0.80;;;;;;;;;;4992012;28;20041;-59
2023/12/27 04:35:59;;;;;;;1.70;0.70;;;;;;;;;;4990107;28;20022;-58
2023/12/27 04:38:25;;;;;;;1.33;0.50;;;;;;;;;;4989224;28;20507;-58
2023/12/27 04:40:51;;;;;;;1.15;0.70;;;;;;;;;;5002303;28;20481;-58
2023/12/27 04:43:17;;;;;;;1.20;0.70;;;;;;;;;;4986245;28;20033;-59
2023/12/27 04:45:42;;;;;;;2.28;0.90;;;;;;;;;;4990100;28;20377;-58
2023/12/27 04:48:07;;;;;;;1.48;0.60;;;;;;;;;;4992095;28;20396;-58
2023/12/27 04:50:33;;;;;;;1.70;0.80;;;;;;;;;;4989345;28;20026;-59
2023/12/27 04:52:58;;;;;;;1.73;0.80;;;;;;;;;;4987306;28;20018;-59
2023/12/27 04:55:24;;;;;;;1.73;0.80;;;;;;;;;;4992702;28;20030;-59
2023/12/27 04:57:49;;;;;;;1.58;0.65;;;;;;;;;;4990243;28;21320;-58
2023/12/27 05:00:15;;;;;;;0.60;0.43;;;;;;;;;;4988753;28;20113;-58
2023/12/27 05:02:40;;;;;;;1.50;0.60;;;;;;;;;;4989923;28;20030;-58
2023/12/27 05:05:07;;;;;;;1.27;0.60;;;;;;;;;;4992107;28;20034;-58
2023/12/27 05:07:33;;;;;;;1.00;0.60;;;;;;;;;;4985910;28;20026;-58
2023/12/27 05:09:58;;;;;;;0.80;0.55;;;;;;;;;;4992078;28;20031;-58
2023/12/27 05:12:23;;;;;;;2.70;0.80;;;;;;;;;;4988856;28;20527;-59
2023/12/27 05:14:49;;;;;;;2.88;0.80;;;;;;;;;;4988805;28;20042;-59
2023/12/27 05:17:14;;;;;;;1.33;0.50;;;;;;;;;;4989577;28;20041;-58
2023/12/27 05:19:39;;;;;;;0.90;0.45;;;;;;;;;;4986612;28;20039;-58
2023/12/27 05:22:05;;;;;;;1.65;0.60;;;;;;;;;;4986110;28;20042;-58
2023/12/27 05:24:30;;;;;;;1.45;0.50;;;;;;;;;;4987541;28;20489;-59
2023/12/27 05:26:56;;;;;;;1.42;0.70;;;;;;;;;;4989170;28;20041;-58
2023/12/27 05:29:21;;;;;;;1.38;0.73;;;;;;;;;;4987557;28;20106;-58
2023/12/27 05:31:46;;;;;;;1.90;0.60;;;;;;;;;;4989291;28;20097;-58
2023/12/27 05:34:12;;;;;;;1.05;0.60;;;;;;;;;;4972782;28;20125;-58
2023/12/27 05:36:37;;;;;;;0.88;0.50;;;;;;;;;;4984309;28;20492;-58
2023/12/27 05:39:03;;;;;;;0.88;0.50;;;;;;;;;;4983471;28;20022;-58
2023/12/27 05:41:29;;;;;;;1.10;0.45;;;;;;;;;;4986204;28;20046;-58
2023/12/27 05:43:55;;;;;;;2.25;0.70;;;;;;;;;;4989197;28;20038;-58
2023/12/27 05:46:20;;;;;;;1.63;0.60;;;;;;;;;;4989146;28;20038;-58
2023/12/27 05:48:46;;;;;;;1.02;0.50;;;;;;;;;;4989283;28;20481;-58
2023/12/27 05:51:11;;;;;;;1.00;0.50;;;;;;;;;;4991070;28;20121;-57
2023/12/27 05:53:37;;;;;;;0.75;0.50;;;;;;;;;;4983291;28;20456;-58
2023/12/27 05:56:02;;;;;;;1.20;0.50;;;;;;;;;;4989713;28;20392;-58
2023/12/27 05:58:28;;;;;;;0.82;0.50;;;;;;;;;;4991077;28;20488;-58
2023/12/27 06:00:54;;;;;;;1.08;0.40;;;;;;;;;;4987329;28;20484;-58
2023/12/27 06:03:19;;;;;;;1.20;0.50;;;;;;;;;;4987965;28;20507;-58
2023/12/27 06:05:45;;;;;;;1.30;0.50;;;;;;;;;;4989952;28;20069;-58
2023/12/27 06:08:10;;;;;;;0.82;0.40;;;;;;;;;;4990832;28;20022;-58
2023/12/27 06:10:36;;;;;;;1.50;0.47;;;;;;;;;;5003885;28;20484;-58
2023/12/27 06:13:02;;;;;;;0.63;0.40;;;;;;;;;;4989355;28;20404;-58
2023/12/27 06:15:28;;;;;;;1.05;0.40;;;;;;;;;;4988178;28;20551;-58
2023/12/27 06:17:54;;;;;;;1.30;0.50;;;;;;;;;;4984632;28;20034;-59
2023/12/27 06:20:19;;;;;;;1.45;0.50;;;;;;;;;;4989051;28;20022;-58
2023/12/27 06:22:45;;;;;;;0.77;0.40;;;;;;;;;;4982693;28;20053;-58
2023/12/27 06:25:10;;;;;;;0.93;0.40;;;;;;;;;;4988625;28;20492;-58
2023/12/27 06:27:36;;;;;;;1.17;0.50;;;;;;;;;;4987638;28;20022;-58
2023/12/27 06:30:02;;;;;;;1.08;0.50;;;;;;;;;;4989195;28;20469;-58
2023/12/27 06:32:28;;;;;;;0.40;0.40;;;;;;;;;;4990151;28;20495;-58
2023/12/27 06:34:53;;;;;;;1.30;0.50;;;;;;;;;;4989012;28;20069;-58
2023/12/27 06:37:18;;;;;;;1.15;0.50;;;;;;;;;;4988432;28;20116;-58
2023/12/27 06:39:44;;;;;;;0.55;0.30;;;;;;;;;;4988194;28;20030;-58
2023/12/27 06:42:09;;;;;;;0.90;0.40;;;;;;;;;;4989261;28;20435;-58
2023/12/27 06:44:35;;;;;;;0.95;0.40;;;;;;;;;;4991477;28;20109;-58
2023/12/27 06:47:00;;;;;;;1.38;0.50;;;;;;;;;;4986729;28;20057;-58
2023/12/27 06:49:26;;;;;;;0.68;0.40;;;;;;;;;;4984012;28;20389;-58
2023/12/27 06:51:51;;;;;;;1.25;0.40;;;;;;;;;;4990006;28;20034;-58
2023/12/27 06:54:17;;;;;;;0.63;0.40;;;;;;;;;;4989817;28;20096;-58
2023/12/27 06:56:42;;;;;;;1.13;0.30;;;;;;;;;;4988549;28;20376;-58
2023/12/27 06:59:07;;;;;;;1.20;0.50;;;;;;;;;;4986151;28;20042;-58
2023/12/27 07:01:33;;;;;;;0.93;0.57;;;;;;;;;;4984301;28;20026;-58
2023/12/27 07:03:58;;;;;;;0.40;0.30;;;;;;;;;;4987210;28;20097;-58
2023/12/27 07:06:24;;;;;;;0.63;0.40;;;;;;;;;;5003070;28;20026;-58
2023/12/27 07:08:49;;;;;;;1.25;0.52;;;;;;;;;;4991293;28;20026;-58
2023/12/27 07:11:18;;;;;;;0.55;0.40;;;;;;;;;;4988841;28;20104;-58
2023/12/27 07:13:46;;;;;;;0.50;0.40;;;;;;;;;;4990768;28;20031;-58
2023/12/27 07:16:12;;;;;;;1.63;0.60;;;;;;;;;;4991932;28;20029;-58
2023/12/27 07:18:38;;;;;;;1.05;0.50;;;;;;;;;;4990420;28;20080;-52
2023/12/27 07:21:05;;;;;;;0.63;0.30;;;;;;;;;;4988058;28;20500;-50
2023/12/27 07:23:30;;;;;;;0.32;0.25;;;;;;;;;;4987065;28;20026;-50
2023/12/27 07:25:56;;;;;;;1.85;0.40;;;;;;;;;;4989807;28;20085;-51
2023/12/27 07:28:22;;;;;;;1.40;0.45;;;;;;;;;;4988299;28;20038;-51
2023/12/27 07:30:48;;;;;;;0.80;0.47;;;;;;;;;;5007878;28;20134;-52
2023/12/27 07:33:15;;;;;;;1.33;0.50;;;;;;;;;;4992451;28;20038;-52
2023/12/27 07:35:42;;;;;;;0.52;0.40;;;;;;;;;;4992538;28;20424;-52
2023/12/27 07:38:08;;;;;;;0.88;0.45;;;;;;;;;;4989420;28;20587;-48
2023/12/27 07:40:34;;;;;;;0.85;0.43;;;;;;;;;;4989210;28;20109;-51
2023/12/27 07:43:00;;;;;;;0.77;0.40;;;;;;;;;;4992244;28;20027;-51
2023/12/27 07:45:25;;;;;;;0.80;0.30;;;;;;;;;;4991194;28;20061;-51
2023/12/27 07:47:50;;;;;;;0.70;0.43;;;;;;;;;;4984334;28;20440;-51
2023/12/27 07:50:16;;;;;;;1.20;0.40;;;;;;;;;;4988738;28;20061;-52
2023/12/27 07:52:42;;;;;;;0.88;0.43;;;;;;;;;;4989270;28;20477;-51
2023/12/27 07:55:08;;;;;;;0.45;0.38;;;;;;;;;;4991689;28;20030;-50
2023/12/27 07:57:33;;;;;;;0.88;0.43;;;;;;;;;;4988587;28;20480;-51
2023/12/27 07:59:59;;;;;;;0.95;0.30;;;;;;;;;;4992050;28;20500;-52
2023/12/27 08:02:24;;;;;;;0.73;0.40;;;;;;;;;;4987703;28;20030;-51
2023/12/27 08:04:50;;;;;;;0.98;0.40;;;;;;;;;;4989861;28;20030;-53
2023/12/27 08:07:15;;;;;;;0.40;0.30;;;;;;;;;;4992224;28;20440;-53
2023/12/27 08:09:40;;;;;;;0.40;0.28;;;;;;;;;;4989793;28;20018;-53
2023/12/27 08:12:06;;;;;;;0.50;0.40;;;;;;;;;;4991522;28;20038;-52
2023/12/27 08:14:32;;;;;;;0.70;0.30;;;;;;;;;;4986892;28;20487;-53
2023/12/27 08:16:58;;;;;;;0.70;0.40;;;;;;;;;;4991250;28;20034;-53
2023/12/27 08:19:23;;;;;;;0.75;0.40;;;;;;;;;;4991047;28;20397;-51
2023/12/27 08:21:48;;;;;;;0.63;0.40;;;;;;;;;;4984556;28;20053;-51
2023/12/27 08:24:14;;;;;;;0.50;0.30;;;;;;;;;;4995171;28;20040;-50
2023/12/27 08:26:39;;;;;;;1.20;0.30;;;;;;;;;;4990757;28;20022;-52
2023/12/27 08:29:04;;;;;;;0.40;0.30;;;;;;;;;;4988903;28;20038;-53
2023/12/27 08:31:30;;;;;;;0.95;0.30;;;;;;;;;;4986043;28;20112;-49
2023/12/27 08:33:58;;;;;;;1.00;0.40;;;;;;;;;;5002907;28;20484;-53
2023/12/27 08:36:25;;;;;;;0.43;0.30;;;;;;;;;;4991886;28;20038;-53
2023/12/27 08:38:50;;;;;;;0.20;0.20;;;;;;;;;;4986020;28;20047;-58
2023/12/27 08:41:15;;;;;;;0.45;0.30;;;;;;;;;;4991845;28;20046;-59
2023/12/27 08:43:42;;;;;;;0.55;0.30;;;;;;;;;;4987997;28;20034;-59
2023/12/27 08:46:11;;;;;;;1.15;0.28;;;;;;;;;;4991036;28;20038;-59
2023/12/27 08:48:36;;;;;;;0.68;0.30;;;;;;;;;;4989106;28;20031;-58
2023/12/27 08:51:02;;;;;;;0.55;0.30;;;;;;;;;;4986190;28;20045;-59
2023/12/27 08:53:29;;;;;;;0.60;0.30;;;;;;;;;;4990376;28;20034;-59
2023/12/27 08:55:54;;;;;;;0.77;0.38;;;;;;;;;;4986470;28;20030;-58
2023/12/27 08:58:20;;;;;;;0.30;0.30;;;;;;;;;;4983963;28;20042;-59
2023/12/27 09:00:45;;;;;;;0.50;0.30;;;;;;;;;;4988297;28;20038;-59
2023/12/27 09:03:11;;;;;;;0.28;0.28;;;;;;;;;;4991080;28;20041;-59
2023/12/27 09:05:36;;;;;;;0.47;0.30;;;;;;;;;;4991885;28;20026;-59
2023/12/27 09:08:02;;;;;;;0.22;0.22;;;;;;;;;;4990799;28;20413;-58
2023/12/27 09:10:28;;;;;;;0.38;0.30;;;;;;;;;;5007510;28;20527;-59
2023/12/27 09:12:53;;;;;;;0.40;0.20;;;;;;;;;;5002564;28;20030;-59
2023/12/27 09:15:19;;;;;;;0.30;0.30;;;;;;;;;;5002098;28;20022;-59
2023/12/27 09:17:44;;;;;;;0.50;0.30;;;;;;;;;;4985623;28;20027;-59
2023/12/27 09:20:10;;;;;;;0.40;0.28;;;;;;;;;;4989190;28;20034;-58
2023/12/27 09:22:36;;;;;;;0.40;0.40;;;;;;;;;;4989833;28;20497;-58
2023/12/27 09:25:01;;;;;;;0.65;0.30;;;;;;;;;;4990429;28;20093;-59
2023/12/27 09:27:27;;;;;;;0.35;0.35;;;;;;;;;;4990468;28;20026;-59
2023/12/27 09:29:52;;;;;;;0.45;0.30;;;;;;;;;;4988776;28;20057;-59
2023/12/27 09:32:18;;;;;;;0.30;0.30;;;;;;;;;;4987152;28;20034;-59
2023/12/27 09:34:43;;;;;;;0.93;0.40;;;;;;;;;;4980498;28;20034;-59
2023/12/27 09:37:09;;;;;;;0.52;0.30;;;;;;;;;;4988093;28;20041;-59
2023/12/27 09:39:34;;;;;;;0.30;0.30;;;;;;;;;;4989936;28;20080;-58
2023/12/27 09:42:00;;;;;;;0.20;0.20;;;;;;;;;;4989977;28;20042;-59
2023/12/27 09:44:26;;;;;;;0.20;0.20;;;;;;;;;;4989288;28;20034;-59
2023/12/27 09:46:51;;;;;;;0.45;0.30;;;;;;;;;;4980461;28;20038;-58
2023/12/27 09:49:20;;;;;;;0.30;0.30;;;;;;;;;;4988570;28;20476;-59
2023/12/27 09:51:47;;;;;;;0.50;0.30;;;;;;;;;;4986993;28;20034;-58
2023/12/27 09:54:16;;;;;;;0.50;0.30;;;;;;;;;;4988026;28;20134;-58
2023/12/27 09:56:41;;;;;;;0.20;0.20;;;;;;;;;;4985011;28;20481;-58
2023/12/27 09:59:07;;;;;;;0.32;0.30;;;;;;;;;;4989077;28;20042;-59
2023/12/27 10:01:41;;;;;;;0.55;0.20;;;;;;;;;;4989582;28;20061;-58
2023/12/27 10:04:45;;;;;;;0.22;0.20;;;;;;;;;;4988588;28;20562;-58
2023/12/27 10:07:15;;;;;;;0.20;0.20;;;;;;;;;;4984494;28;20030;-59
2023/12/27 10:09:41;;;;;;;0.30;0.20;;;;;;;;;;4984360;28;20018;-59
2023/12/27 10:12:07;;;;;;;0.30;0.28;;;;;;;;;;4985904;28;20034;-58
2023/12/27 10:14:35;;;;;;;0.35;0.20;;;;;;;;;;4988650;28;20088;-59
2023/12/27 10:17:02;;;;;;;0.40;0.30;;;;;;;;;;4990451;28;20109;-59
2023/12/27 10:19:40;;;;;;;0.30;0.30;;;;;;;;;;4991166;28;20034;-59
2023/12/27 10:22:07;;;;;;;0.40;0.30;;;;;;;;;;4990842;28;20026;-58
2023/12/27 10:24:34;;;;;;;0.35;0.20;;;;;;;;;;4991986;28;20096;-58
2023/12/27 10:27:00;;;;;;;0.20;0.20;;;;;;;;;;4986898;28;20018;-59
2023/12/27 10:29:26;;;;;;;0.43;0.20;;;;;;;;;;4988428;28;20030;-59
2023/12/27 10:31:51;;;;;;;0.50;0.20;;;;;;;;;;4981961;28;20034;-58
2023/12/27 10:34:18;;;;;;;0.20;0.20;;;;;;;;;;4982153;28;20034;-59
2023/12/27 10:36:43;;;;;;;0.40;0.30;;;;;;;;;;4984086;28;20703;-59
2023/12/27 10:39:09;;;;;;;0.32;0.22;;;;;;;;;;4985212;28;20185;-58
2023/12/27 10:41:34;;;;;;;0.20;0.20;;;;;;;;;;4999336;28;20480;-58
2023/12/27 10:44:00;;;;;;;0.30;0.20;;;;;;;;;;4987822;28;20488;-59
2023/12/27 10:46:26;;;;;;;0.63;0.30;;;;;;;;;;4963798;28;20097;-58
2023/12/27 10:51:55;;;;;;;3.33;1.70;;;;;;;;;;5074735;27;20417;-79
2023/12/27 10:54:22;;;;;;;3.38;2.13;;;;;;;;;;5067975;28;20059;-79
2023/12/27 10:56:52;;;;;;;3.00;1.63;;;;;;;;;;5066521;28;20024;-79
2023/12/27 10:59:18;;;;;;;3.03;2.10;;;;;;;;;;5068181;28;20054;-91
2023/12/27 11:01:45;;;;;;;4.97;2.20;;;;;;;;;;5057974;28;20055;-92
2023/12/27 11:04:12;;;;;;;5.20;2.08;;;;;;;;;;5059388;28;20060;-93
2023/12/27 11:06:39;;;;;;;4.60;2.38;;;;;;;;;;5070712;28;20036;-91
2023/12/27 11:09:07;;;;;;;4.07;2.30;;;;;;;;;;5057616;28;20025;-92
2023/12/27 11:11:39;;;;;;;5.22;2.20;;;;;;;;;;5060734;28;20100;-91
2023/12/27 11:14:09;;;;;;;4.67;2.40;;;;;;;;;;5028179;28;20045;-90
2023/12/27 11:16:36;;;;;;;6.32;2.85;;;;;;;;;;5061925;28;20265;-90
2023/12/27 11:19:08;;;;;;;4.47;2.38;;;;;;;;;;5059163;28;20025;-90
2023/12/27 11:21:34;;;;;;;4.30;2.45;;;;;;;;;;5063786;28;20025;-90
2023/12/27 11:24:03;;;;;;;6.20;2.60;;;;;;;;;;5075695;28;20032;-90
2023/12/27 11:26:32;;;;;;;6.10;2.58;;;;;;;;;;5055934;28;20116;-90
2023/12/27 11:29:00;;;;;;;5.55;2.80;;;;;;;;;;5066433;28;20090;-90
2023/12/27 11:31:25;;;;;;;4.40;2.47;;;;;;;;;;5059087;28;20020;-89
2023/12/27 11:33:52;;;;;;;6.50;2.70;;;;;;;;;;5063374;28;20458;-89
2023/12/27 11:36:19;;;;;;;5.22;2.72;;;;;;;;;;5071364;28;20405;-90
2023/12/27 11:38:46;;;;;;;5.82;2.50;;;;;;;;;;5058648;28;20032;-90
2023/12/27 11:41:12;;;;;;;7.35;2.90;;;;;;;;;;5061162;28;20033;-90
2023/12/27 11:44:03;;;;;;;5.15;2.45;;;;;;;;;;5054091;28;20044;-90
2023/12/27 11:46:30;;;;;;;5.97;3.00;;;;;;;;;;5063928;28;20028;-90
2023/12/27 11:49:00;;;;;;;6.25;2.97;;;;;;;;;;5058339;28;20059;-90
2023/12/27 11:51:38;;;;;;;5.28;3.00;;;;;;;;;;5050430;28;20029;-90
2023/12/27 11:54:08;;;;;;;8.40;3.13;;;;;;;;;;5060055;28;20025;-91
2023/12/27 11:56:37;;;;;;;8.15;3.30;;;;;;;;;;5054822;28;20060;-90
2023/12/27 11:59:08;;;;;;;6.75;3.30;;;;;;;;;;5056280;28;20036;-91
2023/12/27 12:01:35;;;;;;;5.90;3.15;;;;;;;;;;5052249;28;20025;-90
2023/12/27 12:04:15;;;;;;;7.38;3.35;;;;;;;;;;5038329;28;20053;-91
2023/12/27 12:06:55;;;;;;;4.90;2.72;;;;;;;;;;5069186;28;20032;-90
2023/12/27 12:09:37;;;;;;;7.43;3.25;;;;;;;;;;5057474;28;20033;-89
2023/12/27 12:12:22;;;;;;;7.10;3.55;;;;;;;;;;5046602;28;20040;-90
2023/12/27 12:14:52;;;;;;;7.55;3.13;;;;;;;;;;5039284;28;20032;-90
2023/12/27 12:17:19;;;;;;;6.57;3.00;;;;;;;;;;5041182;28;20033;-90
2023/12/27 12:19:47;;;;;;;10.52;3.85;;;;;;;;;;5035869;28;20116;-80
2023/12/27 12:22:13;;;;;;;5.03;3.03;;;;;;;;;;5029523;28;20032;-80
2023/12/27 12:24:39;;;;;;;7.35;3.38;;;;;;;;;;5032662;28;20039;-80
2023/12/27 12:27:05;;;;;;;9.82;3.47;;;;;;;;;;5038786;28;20036;-80
2023/12/27 12:29:31;;;;;;;6.82;3.13;;;;;;;;;;5037644;28;20029;-80
2023/12/27 12:31:56;;;;;;;7.30;3.53;;;;;;;;;;5028518;28;20034;-80
2023/12/27 12:34:25;;;;;;;8.32;3.63;;;;;;;;;;5039918;28;20586;-80
2023/12/27 12:36:52;;;;;;;9.43;3.67;;;;;;;;;;5034093;28;20033;-80
2023/12/27 12:39:21;;;;;;;8.68;3.70;;;;;;;;;;5036911;28;20036;-80
2023/12/27 12:41:51;;;;;;;6.50;3.50;;;;;;;;;;5037402;28;20117;-80
2023/12/27 12:44:17;;;;;;;8.57;3.55;;;;;;;;;;5035869;28;20039;-80
2023/12/27 12:46:44;;;;;;;6.68;3.65;;;;;;;;;;5035763;28;20025;-80
2023/12/27 12:49:12;;;;;;;11.25;4.15;;;;;;;;;;5039438;28;20025;-80
2023/12/27 12:51:37;;;;;;;8.38;3.58;;;;;;;;;;5033769;28;20033;-80
2023/12/27 12:54:04;;;;;;;8.30;3.33;;;;;;;;;;5036185;28;20036;-80
2023/12/27 12:56:29;;;;;;;7.15;3.90;;;;;;;;;;5030986;28;20116;-80
2023/12/27 12:58:58;;;;;;;7.50;3.70;;;;;;;;;;5040327;28;20047;-80
2023/12/27 13:01:24;;;;;;;7.18;3.65;;;;;;;;;;5030529;28;20558;-80
2023/12/27 13:03:50;;;;;;;8.07;4.03;;;;;;;;;;5033371;28;20030;-80
2023/12/27 13:06:17;;;;;;;7.65;3.85;;;;;;;;;;5032326;28;20021;-81
2023/12/27 13:08:43;;;;;;;8.95;3.90;;;;;;;;;;5028000;28;20032;-85
2023/12/27 13:11:11;;;;;;;5.45;3.50;;;;;;;;;;5036153;28;20104;-85
2023/12/27 13:13:37;;;;;;;9.40;3.65;;;;;;;;;;5042023;28;20411;-86
2023/12/27 13:16:03;;;;;;;9.43;3.38;;;;;;;;;;5040631;28;20087;-85
2023/12/27 13:18:28;;;;;;;9.57;3.45;;;;;;;;;;5042746;28;20025;-86
2023/12/27 13:20:54;;;;;;;10.48;3.65;;;;;;;;;;5044221;28;20106;-86
2023/12/27 13:23:20;;;;;;;10.63;3.67;;;;;;;;;;5032421;28;20402;-84
2023/12/27 13:25:46;;;;;;;5.90;3.22;;;;;;;;;;5035598;28;20024;-82
2023/12/27 13:28:12;;;;;;;9.43;3.63;;;;;;;;;;5039689;28;20088;-83
2023/12/27 13:30:39;;;;;;;7.03;3.60;;;;;;;;;;5036764;28;20093;-84
2023/12/27 13:33:05;;;;;;;10.52;3.88;;;;;;;;;;5058210;28;20032;-84
2023/12/27 13:35:31;;;;;;;7.53;3.45;;;;;;;;;;5046231;28;20025;-84
2023/12/27 13:37:58;;;;;;;9.45;4.10;;;;;;;;;;5035177;28;20404;-84
2023/12/27 13:40:24;;;;;;;9.18;3.55;;;;;;;;;;5016496;28;20047;-84
2023/12/27 13:42:50;;;;;;;8.57;3.58;;;;;;;;;;5036303;28;20024;-84
2023/12/27 13:45:16;;;;;;;7.60;3.88;;;;;;;;;;5035257;28;20380;-85
2023/12/27 13:47:42;;;;;;;12.32;4.25;;;;;;;;;;5040213;28;20034;-84
2023/12/27 13:50:08;;;;;;;6.75;3.72;;;;;;;;;;5034855;28;20036;-83
2023/12/27 13:52:34;;;;;;;8.57;3.83;;;;;;;;;;5032284;28;20210;-84
2023/12/27 13:55:00;;;;;;;8.98;3.72;;;;;;;;;;5027178;28;20024;-83
2023/12/27 13:57:25;;;;;;;9.52;3.88;;;;;;;;;;5024536;28;20142;-84
2023/12/27 13:59:54;;;;;;;7.70;3.40;;;;;;;;;;5025035;28;20028;-85
2023/12/27 14:02:22;;;;;;;8.93;3.42;;;;;;;;;;5037873;28;20052;-85
2023/12/27 14:04:48;;;;;;;11.65;4.00;;;;;;;;;;5035799;28;20082;-86
2023/12/27 14:07:13;;;;;;;8.95;3.97;;;;;;;;;;5035201;28;20032;-85
2023/12/27 14:09:40;;;;;;;8.07;3.55;;;;;;;;;;5022011;28;20156;-85
2023/12/27 14:12:06;;;;;;;8.57;3.35;;;;;;;;;;5031956;28;20032;-85
2023/12/27 14:14:32;;;;;;;8.38;4.10;;;;;;;;;;5032445;28;20028;-85
2023/12/27 14:16:57;;;;;;;8.55;3.78;;;;;;;;;;5030821;28;20403;-85
2023/12/27 14:19:24;;;;;;;10.13;4.15;;;;;;;;;;5026567;28;20052;-85
2023/12/27 14:21:49;;;;;;;12.30;4.22;;;;;;;;;;5024945;28;20025;-85
2023/12/27 14:24:15;;;;;;;9.98;4.22;;;;;;;;;;5026843;28;20047;-85
2023/12/27 14:26:42;;;;;;;9.30;3.40;;;;;;;;;;5029570;28;20036;-85
2023/12/27 14:29:08;;;;;;;7.72;3.42;;;;;;;;;;5017520;28;20051;-86
2023/12/27 14:31:36;;;;;;;8.60;3.40;;;;;;;;;;5030541;28;20029;-85
2023/12/27 14:34:02;;;;;;;6.75;3.63;;;;;;;;;;5033913;28;20040;-85
2023/12/27 14:36:29;;;;;;;9.88;3.65;;;;;;;;;;5030479;28;20644;-85
2023/12/27 14:39:04;;;;;;;6.50;3.55;;;;;;;;;;5022531;28;20116;-84